Portada
METAR-TAF:

METAR-TAF

Aeroports :

Istre, França

latitud: 43-31N, longitud: 004-56E, altitud: 23 m

Observació

L'informe es va fer fa 22 minuts, a les 14:00 UTC
Vent 18 kt del Nord
Temperatura 11°C
Humitat 47%
Pressió 1023 hPa
Visibilitat 10 km o més
sense núvols per sota de 1500 mi sense presència de cumulonimbus.

METAR: LFMI 181400Z AUTO 35018KT CAVOK 11/00 Q1023 TEMPO 34015G25KT

Hora: 15:22 (14:22 UTC)

Pronòstic

L'informe es va fer fa 6 hores i 22 minuts, a les 08:00 UTC
Pronòstic vàlid del 18 a les 09 UTC al 19 a les 09 UTC
Vent 10 kt del Oest/Nord-Oest
Visibilitat 10 km o més
sense núvols per sota de 1500 mi sense presència de cumulonimbus.
Evolucionant progressivament
l' 18 a les 12 UTC al 18 a les 13 UTC
Vent 15 kt del Nord/Nord-Oest amb ràfegues de 25 kt
Evolucionant progressivament
l' 18 a les 15 UTC al 18 a les 17 UTC
Vent 10 kt del Nord

TAF: LFMI 180800Z 1809/1909 29010KT CAVOK BECMG 1812/1813 34015G25KT BECMG 1815/1817 36010KT

Observacions i pronòstics meteorològics de més de 4000 aeroports (METAR i TAF).

Les estacions disponibles són els punts grocs i vermells al mapa.

Posi el ratolí al punt desitjat per veure el nom de l'estació.

Feu clic per veure les observacions i els pronòstics meteorològics.

Per canviar el mapa: feu clic els botons verds amb una creu de color negre per apropar; al botó verd amb un guió per allunyar la imatge; o en les fletxes verdes per a mapes adjacents.


METAR-TAF: